Time;durP1;ratioP1;P1;durP2;ratioP2;P2;SDS_P1;SDS_P2;PMS_P1;PMS_P2;Temp;Humidity;BMP_temperature;BMP_pressure;BME280_temperature;BME280_humidity;BME280_pressure;Samples;Min_cycle;Max_cycle;Signal;HPM_P1;HPM_P2
2021/09/16 00:00:52;;;;;;;3.17;2.83;;;;;;;22.70;84.92;97308.22;4951386;28;20209;-66
2021/09/16 00:03:19;;;;;;;4.30;2.87;;;;;;;22.65;84.68;97298.72;4944079;28;20597;-66
2021/09/16 00:05:45;;;;;;;2.93;2.70;;;;;;;22.83;84.90;97330.69;4952854;28;20231;-66
2021/09/16 00:08:12;;;;;;;3.60;3.00;;;;;;;22.58;84.92;97291.72;4963116;28;20235;-66
2021/09/16 00:10:39;;;;;;;3.17;2.63;;;;;;;22.72;84.69;97311.69;4943669;28;20589;-66
2021/09/16 00:13:05;;;;;;;4.37;2.70;;;;;;;22.55;85.05;97289.97;4948679;28;20272;-66
2021/09/16 00:15:32;;;;;;;5.37;2.90;;;;;;;22.83;85.01;97329.84;4926630;29;20784;-66
2021/09/16 00:17:59;;;;;;;3.50;2.90;;;;;;;22.70;84.76;97309.91;4931205;28;20203;-66
2021/09/16 00:20:25;;;;;;;5.23;2.80;;;;;;;22.69;84.96;97315.88;4953235;28;20212;-67
2021/09/16 00:22:52;;;;;;;4.33;2.73;;;;;;;22.41;85.22;97259.75;4940604;28;20207;-66
2021/09/16 00:25:18;;;;;;;2.80;2.50;;;;;;;22.51;85.03;97275.38;4947117;28;20295;-66
2021/09/16 00:27:45;;;;;;;3.50;2.90;;;;;;;22.59;85.01;97286.63;4949942;28;20247;-66
2021/09/16 00:30:12;;;;;;;3.37;2.90;;;;;;;22.84;84.71;97334.13;4949859;28;20259;-66
2021/09/16 00:32:39;;;;;;;3.87;3.00;;;;;;;22.67;85.08;97309.84;4959991;28;20246;-66
2021/09/16 00:35:07;;;;;;;3.30;2.97;;;;;;;22.10;84.93;97219.81;4943793;28;20215;-66
2021/09/16 00:37:34;;;;;;;2.70;2.50;;;;;;;22.69;84.89;97331.25;4955983;28;20508;-66
2021/09/16 00:40:02;;;;;;;2.70;2.50;;;;;;;22.79;85.00;97344.28;4944900;28;20268;-67
2021/09/16 00:42:29;;;;;;;3.93;2.50;;;;;;;22.43;84.92;97270.84;4952051;28;20215;-66
2021/09/16 00:44:55;;;;;;;3.47;2.50;;;;;;;22.83;85.17;97343.50;4936464;28;20227;-67
2021/09/16 00:47:22;;;;;;;3.00;2.70;;;;;;;22.83;85.05;97358.88;4954742;28;20571;-66
2021/09/16 00:49:49;;;;;;;3.50;2.70;;;;;;;22.78;85.32;97334.88;4963769;28;20211;-66
2021/09/16 00:52:16;;;;;;;3.20;2.90;;;;;;;22.84;84.93;97341.81;4940175;28;20275;-67
2021/09/16 00:54:43;;;;;;;3.60;2.83;;;;;;;21.79;85.07;97162.78;4948301;28;20232;-67
2021/09/16 00:57:11;;;;;;;3.73;2.40;;;;;;;22.68;84.94;97317.56;4947255;28;20626;-67
2021/09/16 00:59:37;;;;;;;2.80;2.60;;;;;;;22.84;85.19;97341.81;4960036;28;20696;-65
2021/09/16 01:02:04;;;;;;;3.13;2.63;;;;;;;22.75;85.31;97321.13;4947659;28;20211;-67
2021/09/16 01:04:31;;;;;;;3.03;2.47;;;;;;;22.79;84.77;97323.78;4927688;29;20224;-67
2021/09/16 01:06:58;;;;;;;2.93;2.63;;;;;;;22.83;85.26;97333.25;4964973;28;20299;-66
2021/09/16 01:09:25;;;;;;;4.03;2.70;;;;;;;22.39;84.94;97253.72;4953591;28;20241;-67
2021/09/16 01:11:52;;;;;;;3.73;3.07;;;;;;;22.84;84.79;97318.75;4954345;28;20219;-67
2021/09/16 01:14:23;;;;;;;3.73;2.53;;;;;;;22.00;84.95;97170.94;4937648;28;20215;-67
2021/09/16 01:16:50;;;;;;;2.83;2.30;;;;;;;22.84;85.26;97311.06;4937969;28;20212;-67
2021/09/16 01:19:18;;;;;;;4.60;2.93;;;;;;;22.74;85.07;97294.63;4934530;29;20303;-68
2021/09/16 01:21:44;;;;;;;3.47;2.50;;;;;;;22.84;84.97;97304.25;4934361;29;20271;-67
2021/09/16 01:24:11;;;;;;;2.70;2.50;;;;;;;22.54;84.84;97243.81;4947298;28;20321;-67
2021/09/16 01:26:38;;;;;;;3.07;2.50;;;;;;;22.85;84.96;97295.72;4938230;28;20666;-67
2021/09/16 01:29:05;;;;;;;2.63;2.40;;;;;;;22.85;84.87;97292.28;4937210;28;20716;-67
2021/09/16 01:31:46;;;;;;;3.77;2.73;;;;;;;22.74;85.06;97268.16;4937866;28;20211;-67
2021/09/16 01:34:13;;;;;;;5.30;2.50;;;;;;;22.73;85.25;97280.09;4933695;28;20666;-67
2021/09/16 01:36:41;;;;;;;2.67;2.47;;;;;;;22.46;84.80;97235.94;4934490;29;20258;-67
2021/09/16 01:39:09;;;;;;;3.10;2.77;;;;;;;22.86;84.94;97297.44;4951275;28;20566;-67
2021/09/16 01:41:36;;;;;;;2.83;2.60;;;;;;;22.88;84.92;97312.84;4936483;28;20235;-66
2021/09/16 01:44:03;;;;;;;3.00;2.70;;;;;;;22.89;84.90;97318.00;4937647;28;20223;-67
2021/09/16 01:46:29;;;;;;;3.20;2.60;;;;;;;22.88;84.97;97320.53;4937866;28;20263;-66
2021/09/16 01:48:57;;;;;;;3.53;2.50;;;;;;;22.90;85.22;97322.31;4933852;28;20263;-66
2021/09/16 01:51:24;;;;;;;2.93;2.40;;;;;;;22.80;84.59;97316.97;4942656;28;20246;-68
2021/09/16 01:53:51;;;;;;;4.00;2.70;;;;;;;22.84;84.79;97327.31;4937459;28;20215;-67
2021/09/16 01:56:17;;;;;;;2.80;2.47;;;;;;;22.91;84.56;97326.59;4937261;28;20586;-67
2021/09/16 01:58:44;;;;;;;3.03;2.40;;;;;;;22.84;84.54;97311.94;4933369;29;20558;-67
2021/09/16 02:01:11;;;;;;;2.63;2.43;;;;;;;22.93;84.68;97329.19;4949087;29;20571;-67
2021/09/16 02:03:37;;;;;;;2.97;2.47;;;;;;;22.93;84.64;97330.06;4950710;28;20748;-67
2021/09/16 02:06:04;;;;;;;2.73;2.40;;;;;;;22.15;84.74;97199.44;4933877;29;20287;-67
2021/09/16 02:08:31;;;;;;;2.80;2.60;;;;;;;22.09;84.57;97192.50;4945742;28;20212;-66
2021/09/16 02:10:57;;;;;;;2.87;2.40;;;;;;;22.95;84.65;97319.84;4953018;28;20211;-69
2021/09/16 02:13:25;;;;;;;2.90;2.60;;;;;;;22.91;84.63;97306.09;4952658;28;20239;-67
2021/09/16 02:15:52;;;;;;;3.80;2.70;;;;;;;22.60;84.32;97254.19;4937154;28;20224;-67
2021/09/16 02:18:18;;;;;;;2.53;2.33;;;;;;;22.96;84.48;97311.31;4936360;28;20262;-67
2021/09/16 02:20:45;;;;;;;2.80;2.47;;;;;;;22.37;84.56;97205.03;4936485;28;20626;-67
2021/09/16 02:23:12;;;;;;;2.97;2.63;;;;;;;22.83;84.40;97289.69;4952816;28;20655;-67
2021/09/16 02:25:38;;;;;;;5.23;2.60;;;;;;;22.95;84.34;97300.19;4936255;28;20298;-67
2021/09/16 02:28:05;;;;;;;3.33;2.53;;;;;;;22.98;84.34;97304.53;4933333;29;20212;-67
2021/09/16 02:30:32;;;;;;;2.83;2.53;;;;;;;22.61;84.46;97243.09;4949769;28;20625;-67
2021/09/16 02:33:00;;;;;;;4.53;2.73;;;;;;;22.89;84.33;97294.09;4936219;28;20196;-67
2021/09/16 02:35:27;;;;;;;3.13;2.73;;;;;;;22.89;84.46;97288.97;4937187;28;20231;-67
2021/09/16 02:37:54;;;;;;;2.60;2.40;;;;;;;22.94;84.23;97298.47;4932447;29;20204;-67
2021/09/16 02:40:20;;;;;;;2.37;2.17;;;;;;;22.55;84.61;97235.31;4953624;28;20579;-67
2021/09/16 02:42:47;;;;;;;2.80;2.50;;;;;;;22.90;84.43;97304.38;4937079;28;20361;-67
2021/09/16 02:45:13;;;;;;;3.37;2.83;;;;;;;22.95;84.31;97305.31;4952119;28;20235;-67
2021/09/16 02:47:40;;;;;;;3.23;2.63;;;;;;;22.63;84.51;97249.13;4936318;28;20208;-67
2021/09/16 02:50:07;;;;;;;2.70;2.47;;;;;;;22.25;84.50;97194.53;4936721;28;20200;-67
2021/09/16 02:52:34;;;;;;;2.83;2.50;;;;;;;22.99;84.53;97309.69;4952131;28;20278;-67
2021/09/16 02:57:29;;;;;;;3.80;2.67;;;;;;;23.00;84.28;97307.97;4948606;28;20232;-66
2021/09/16 02:59:56;;;;;;;2.97;2.40;;;;;;;23.00;84.38;97313.09;4902285;29;20208;-66
2021/09/16 03:02:23;;;;;;;2.60;2.27;;;;;;;22.93;84.20;97301.88;4948815;28;20235;-66
2021/09/16 03:04:49;;;;;;;2.43;2.23;;;;;;;23.01;84.51;97307.16;4921299;28;20292;-66
2021/09/16 03:07:16;;;;;;;2.60;2.40;;;;;;;23.00;84.28;97300.28;4919056;28;20796;-66
2021/09/16 03:09:43;;;;;;;3.00;2.70;;;;;;;23.01;84.19;97299.47;4901909;29;20697;-66
2021/09/16 03:12:09;;;;;;;2.43;2.23;;;;;;;23.00;84.64;97288.34;4914066;28;20207;-66
2021/09/16 03:14:36;;;;;;;2.57;2.37;;;;;;;23.01;84.56;97284.09;4936169;28;20223;-66
2021/09/16 03:17:03;;;;;;;2.63;2.40;;;;;;;22.94;84.30;97269.41;4935963;28;20611;-64
2021/09/16 03:19:29;;;;;;;2.33;2.13;;;;;;;23.00;84.47;97277.22;4898767;29;20260;-67
2021/09/16 03:21:56;;;;;;;2.73;2.37;;;;;;;23.02;84.84;97283.25;4920349;28;20207;-66
2021/09/16 03:24:22;;;;;;;3.20;2.20;;;;;;;23.01;84.57;97284.94;4920574;28;20227;-66
2021/09/16 03:26:49;;;;;;;3.47;2.57;;;;;;;23.02;84.65;97294.38;4935917;28;20231;-67
2021/09/16 03:29:16;;;;;;;3.00;2.40;;;;;;;23.02;84.41;97291.81;4918552;29;20641;-66
2021/09/16 03:31:42;;;;;;;2.37;2.17;;;;;;;23.02;84.49;97293.50;4910120;28;20203;-66
2021/09/16 03:34:09;;;;;;;2.30;2.10;;;;;;;23.00;84.31;97290.03;4920984;28;21024;-66
2021/09/16 03:36:36;;;;;;;2.40;2.20;;;;;;;23.02;84.41;97291.81;4920946;28;20231;-66
2021/09/16 03:39:02;;;;;;;2.50;2.30;;;;;;;22.83;84.66;97260.66;4901495;29;20216;-66
2021/09/16 03:41:29;;;;;;;2.83;2.40;;;;;;;23.03;84.60;97297.78;4941770;29;20595;-67
2021/09/16 03:43:58;;;;;;;2.40;2.20;;;;;;;23.00;84.47;97292.59;4901319;29;20259;-66
2021/09/16 03:46:25;;;;;;;2.67;2.30;;;;;;;23.00;84.39;97296.03;4932736;29;20255;-67
2021/09/16 03:48:52;;;;;;;2.33;2.13;;;;;;;23.02;84.60;97291.81;4930865;28;20215;-66
2021/09/16 03:51:18;;;;;;;2.47;2.27;;;;;;;23.03;84.54;97303.78;4907806;29;20260;-66
2021/09/16 03:53:45;;;;;;;2.23;2.03;;;;;;;23.03;84.59;97300.34;4914150;29;20213;-66
2021/09/16 03:56:12;;;;;;;2.60;2.40;;;;;;;23.03;84.49;97305.47;4948060;29;20267;-67
2021/09/16 03:58:38;;;;;;;2.50;2.30;;;;;;;22.95;84.38;97291.66;4918051;29;20294;-66
2021/09/16 04:01:05;;;;;;;2.20;2.10;;;;;;;22.95;84.43;97283.97;4899535;29;20224;-66
2021/09/16 04:03:32;;;;;;;3.40;2.60;;;;;;;23.02;84.20;97288.38;4918000;29;20298;-67
2021/09/16 04:05:58;;;;;;;3.00;2.37;;;;;;;22.93;84.68;97272.81;4904633;29;20744;-66
2021/09/16 04:08:25;;;;;;;2.33;2.13;;;;;;;22.99;84.82;97283.19;4902715;28;20608;-65
2021/09/16 04:10:52;;;;;;;2.40;2.20;;;;;;;22.91;85.00;97277.03;4925541;28;20253;-66
2021/09/16 04:13:18;;;;;;;3.40;2.50;;;;;;;22.95;85.02;97289.09;4939770;28;20220;-66
2021/09/16 04:15:45;;;;;;;2.40;2.20;;;;;;;22.96;84.86;97283.13;4939668;28;20979;-66
2021/09/16 04:18:11;;;;;;;2.40;2.20;;;;;;;22.84;85.09;97270.06;4937151;28;20195;-66
2021/09/16 04:20:38;;;;;;;3.10;2.60;;;;;;;22.85;85.48;97272.66;4922441;28;20307;-66
2021/09/16 04:23:05;;;;;;;2.57;2.37;;;;;;;22.93;86.06;97285.63;4923956;28;20219;-66
2021/09/16 04:25:31;;;;;;;4.43;2.93;;;;;;;22.92;86.45;97287.31;4904939;29;20646;-66
2021/09/16 04:27:58;;;;;;;2.80;2.60;;;;;;;22.91;85.72;97288.16;4940389;29;20271;-66
2021/09/16 04:30:25;;;;;;;2.70;2.40;;;;;;;22.87;85.83;97278.69;4908554;28;20203;-67
2021/09/16 04:32:51;;;;;;;3.03;2.63;;;;;;;22.91;85.82;97283.03;4959819;28;20228;-66
2021/09/16 04:35:18;;;;;;;5.37;2.70;;;;;;;22.91;85.72;97280.47;4936431;29;20255;-66
2021/09/16 04:37:44;;;;;;;3.90;2.87;;;;;;;22.93;85.88;97277.94;4901488;29;20209;-66
2021/09/16 04:40:11;;;;;;;3.67;2.87;;;;;;;22.93;86.08;97280.50;4913642;28;20212;-66
2021/09/16 04:42:39;;;;;;;9.00;3.00;;;;;;;22.92;85.99;97277.06;4923807;28;20329;-66
2021/09/16 04:45:07;;;;;;;6.20;3.23;;;;;;;22.94;86.34;97277.09;4939710;28;20232;-66
2021/09/16 04:47:33;;;;;;;3.67;2.83;;;;;;;22.49;86.05;97209.53;4938666;28;20239;-66
2021/09/16 04:50:02;;;;;;;3.27;2.93;;;;;;;22.94;86.38;97287.34;4927670;28;20205;-67
2021/09/16 04:52:28;;;;;;;7.00;3.23;;;;;;;22.87;86.33;97273.56;4955492;28;20212;-67
2021/09/16 04:54:55;;;;;;;8.87;2.90;;;;;;;22.96;86.83;97280.56;4954782;28;20242;-67
2021/09/16 04:57:22;;;;;;;4.63;3.00;;;;;;;22.97;86.46;97277.16;4934464;28;20220;-66
2021/09/16 04:59:48;;;;;;;3.23;2.73;;;;;;;22.89;86.34;97271.88;4901261;29;20268;-66
2021/09/16 05:02:15;;;;;;;3.33;2.70;;;;;;;22.98;86.37;97284.88;4904471;28;20213;-66
2021/09/16 05:04:42;;;;;;;4.10;2.97;;;;;;;22.97;86.49;97288.28;4919482;29;20213;-66
2021/09/16 05:07:08;;;;;;;4.07;3.13;;;;;;;22.98;86.77;97295.13;4903040;28;20303;-66
2021/09/16 05:09:35;;;;;;;4.23;3.03;;;;;;;22.98;86.64;97295.13;4896391;28;20236;-66
2021/09/16 05:12:02;;;;;;;3.90;3.00;;;;;;;23.00;86.67;97293.47;4894597;28;20224;-65
2021/09/16 05:14:28;;;;;;;4.63;3.03;;;;;;;23.01;86.73;97299.47;4894055;28;20698;-65
2021/09/16 05:16:55;;;;;;;3.23;2.90;;;;;;;23.01;86.69;97300.31;4910413;28;20749;-66
2021/09/16 05:19:22;;;;;;;6.57;3.27;;;;;;;23.02;86.83;97309.75;4896168;28;20215;-64
2021/09/16 05:21:48;;;;;;;3.63;2.93;;;;;;;23.03;86.66;97306.34;4931139;29;20215;-66
2021/09/16 05:24:18;;;;;;;3.37;3.03;;;;;;;23.03;86.94;97310.59;4895836;28;20216;-66
2021/09/16 05:26:45;;;;;;;4.80;3.77;;;;;;;22.98;88.05;97304.53;4939024;28;20224;-66
2021/09/16 05:29:11;;;;;;;7.63;5.40;;;;;;;22.86;90.06;97276.09;4934264;28;20259;-65
2021/09/16 05:31:38;;;;;;;6.70;5.33;;;;;;;23.03;91.58;97305.47;4896534;29;20307;-66
2021/09/16 05:34:05;;;;;;;8.63;6.07;;;;;;;23.03;92.78;97305.47;4941709;28;20211;-65
2021/09/16 05:36:31;;;;;;;7.60;5.90;;;;;;;23.00;93.67;97302.84;4909462;28;20325;-64
2021/09/16 05:38:58;;;;;;;13.00;7.17;;;;;;;22.83;94.37;97278.59;4918413;28;20295;-66
2021/09/16 05:41:25;;;;;;;7.33;6.43;;;;;;;22.97;94.68;97302.78;4905892;29;20212;-68
2021/09/16 05:43:51;;;;;;;10.97;6.73;;;;;;;22.99;94.65;97309.69;4949125;28;20294;-66
2021/09/16 05:46:18;;;;;;;8.47;6.30;;;;;;;22.98;95.54;97319.91;4934551;29;20236;-66
2021/09/16 05:48:45;;;;;;;11.77;6.67;;;;;;;22.97;95.66;97321.59;4934351;29;20226;-66
2021/09/16 05:51:11;;;;;;;8.57;6.50;;;;;;;22.78;95.77;97288.75;4967907;28;20235;-66
2021/09/16 05:53:38;;;;;;;10.23;6.20;;;;;;;22.96;96.13;97326.69;4953116;28;20318;-66
2021/09/16 05:56:04;;;;;;;9.23;7.07;;;;;;;22.76;96.40;97287.84;4952944;28;20288;-66
2021/09/16 05:58:31;;;;;;;14.80;6.90;;;;;;;22.95;96.65;97328.38;4923735;29;20788;-67
2021/09/16 06:00:58;;;;;;;12.07;7.17;;;;;;;22.90;96.87;97316.31;4934960;28;20290;-66
2021/09/16 06:03:24;;;;;;;10.90;6.63;;;;;;;22.94;97.12;97325.78;4935232;29;20215;-66
2021/09/16 06:05:51;;;;;;;9.80;6.60;;;;;;;22.94;97.45;97323.22;4953317;28;20250;-67
2021/09/16 06:08:17;;;;;;;9.53;6.70;;;;;;;22.94;97.81;97318.09;4942833;28;20235;-66
2021/09/16 06:10:44;;;;;;;9.47;6.70;;;;;;;22.93;98.14;97330.06;4965874;28;20290;-67
2021/09/16 06:13:10;;;;;;;8.80;6.80;;;;;;;22.93;98.38;97335.19;4970615;28;20242;-65
2021/09/16 06:15:37;;;;;;;9.43;6.37;;;;;;;22.94;97.40;97331.78;4953011;28;20315;-66
2021/09/16 06:18:04;;;;;;;9.03;6.80;;;;;;;22.80;96.93;97309.28;4922475;28;20641;-65
2021/09/16 06:20:31;;;;;;;8.20;7.03;;;;;;;22.95;97.43;97332.66;4938624;29;20224;-66
2021/09/16 06:22:57;;;;;;;8.57;7.17;;;;;;;22.95;97.25;97330.94;4933292;28;20235;-66
2021/09/16 06:25:24;;;;;;;7.50;6.27;;;;;;;22.93;96.87;97327.50;4951099;29;20329;-66
2021/09/16 06:27:51;;;;;;;6.07;5.47;;;;;;;22.16;95.03;97189.22;4950649;28;20892;-67
2021/09/16 06:30:17;;;;;;;9.97;5.63;;;;;;;22.94;94.28;97321.53;4959634;28;20287;-66
2021/09/16 06:32:45;;;;;;;5.53;5.03;;;;;;;22.91;93.70;97324.03;4950656;29;20311;-67
2021/09/16 06:35:11;;;;;;;6.60;5.57;;;;;;;22.81;93.34;97303.31;4933227;29;20642;-65
2021/09/16 06:37:38;;;;;;;6.00;5.47;;;;;;;22.95;93.21;97320.69;4917231;29;20208;-66
2021/09/16 06:40:06;;;;;;;6.10;5.47;;;;;;;22.91;92.91;97311.22;4917995;29;20235;-66
2021/09/16 06:42:33;;;;;;;7.40;5.60;;;;;;;22.95;92.87;97323.25;4934400;29;20212;-66
2021/09/16 06:44:59;;;;;;;8.17;5.47;;;;;;;22.94;92.90;97318.09;4932788;29;20580;-66
2021/09/16 06:47:26;;;;;;;7.33;5.47;;;;;;;22.92;92.41;97317.22;4934529;29;20250;-65
2021/09/16 06:49:52;;;;;;;6.47;5.57;;;;;;;22.82;92.26;97297.34;4941995;28;20291;-67
2021/09/16 06:52:21;;;;;;;7.93;5.43;;;;;;;22.91;91.98;97318.03;4934912;29;20657;-66
2021/09/16 06:54:47;;;;;;;7.47;5.60;;;;;;;22.90;92.05;97316.31;4965007;28;20298;-66
2021/09/16 06:57:14;;;;;;;5.93;5.33;;;;;;;22.90;91.97;97324.00;4948132;28;20315;-66
2021/09/16 06:59:40;;;;;;;8.07;5.53;;;;;;;22.94;92.02;97334.34;4945701;28;20207;-67
2021/09/16 07:02:07;;;;;;;6.67;5.83;;;;;;;22.79;91.86;97305.84;4969160;28;20202;-67
2021/09/16 07:04:38;;;;;;;7.30;5.60;;;;;;;22.90;91.74;97326.56;4935114;28;20700;-66
2021/09/16 07:07:09;;;;;;;7.27;5.60;;;;;;;22.72;91.94;97295.44;4937131;28;20235;-74
2021/09/16 07:09:36;;;;;;;6.40;5.77;;;;;;;22.90;92.04;97326.56;4904570;29;20296;-67
2021/09/16 07:12:03;;;;;;;6.43;5.73;;;;;;;22.92;91.88;97330.88;4927048;29;20243;-66
2021/09/16 07:14:30;;;;;;;7.60;5.80;;;;;;;22.72;92.30;97305.69;4933952;29;20299;-66
2021/09/16 07:16:57;;;;;;;6.00;5.30;;;;;;;22.81;92.19;97319.56;4917096;29;20316;-66
2021/09/16 07:19:23;;;;;;;9.03;6.07;;;;;;;22.92;92.13;97338.56;4917359;29;20234;-65
2021/09/16 07:21:50;;;;;;;6.73;5.40;;;;;;;22.93;92.30;97340.31;4949382;28;20287;-66
2021/09/16 07:24:17;;;;;;;8.53;5.87;;;;;;;22.92;92.18;97345.41;4929902;29;20240;-66
2021/09/16 07:26:49;;;;;;;7.63;6.10;;;;;;;22.90;92.23;97337.69;4932518;29;20234;-66
2021/09/16 07:29:22;;;;;;;9.77;6.23;;;;;;;22.78;92.03;97313.50;4933227;29;20287;-66
2021/09/16 07:31:49;;;;;;;8.30;5.47;;;;;;;22.96;92.11;97342.06;4933212;29;20752;-66
2021/09/16 07:34:16;;;;;;;6.17;5.00;;;;;;;22.96;92.04;97348.06;4949679;29;20232;-66
2021/09/16 07:36:45;;;;;;;7.00;5.77;;;;;;;22.96;92.17;97342.94;4949127;28;20315;-66
2021/09/16 07:39:13;;;;;;;7.53;5.73;;;;;;;22.41;91.86;97247.78;4933957;29;20421;-67
2021/09/16 07:41:40;;;;;;;9.43;5.93;;;;;;;22.89;91.74;97323.13;4936640;29;20607;-66
2021/09/16 07:44:06;;;;;;;6.87;5.57;;;;;;;22.91;91.84;97331.72;4920774;28;20292;-66
2021/09/16 07:46:33;;;;;;;7.73;5.70;;;;;;;22.99;91.91;97342.13;4923708;28;21003;-65
2021/09/16 07:48:59;;;;;;;7.77;5.50;;;;;;;23.00;91.96;97346.41;4955562;28;20203;-66
2021/09/16 07:51:26;;;;;;;6.57;5.87;;;;;;;23.01;91.82;97345.59;4956409;28;20766;-63
2021/09/16 07:53:53;;;;;;;7.20;5.60;;;;;;;22.96;91.72;97340.38;4953508;29;20295;-67
2021/09/16 07:56:19;;;;;;;8.47;6.00;;;;;;;22.96;91.69;97340.38;4935377;29;20311;-65
2021/09/16 07:58:46;;;;;;;7.27;6.00;;;;;;;23.02;91.64;97342.19;4920034;29;20223;-66
2021/09/16 08:01:13;;;;;;;7.13;5.90;;;;;;;22.90;91.32;97332.56;4920837;28;20295;-66
2021/09/16 08:03:40;;;;;;;8.87;5.60;;;;;;;22.92;91.42;97330.88;4936067;29;20258;-67
2021/09/16 08:06:07;;;;;;;7.87;5.90;;;;;;;22.92;91.52;97346.25;4919865;29;20224;-67
2021/09/16 08:08:33;;;;;;;9.10;5.50;;;;;;;23.01;91.53;97353.28;4904293;28;20232;-67
2021/09/16 08:11:00;;;;;;;6.70;5.40;;;;;;;22.97;91.22;97348.91;4963173;28;20704;-66
2021/09/16 08:13:27;;;;;;;5.87;5.30;;;;;;;23.01;91.23;97355.84;4947925;29;20240;-66
2021/09/16 08:15:53;;;;;;;8.20;5.53;;;;;;;22.88;91.18;97335.91;4952834;28;20706;-68
2021/09/16 08:18:21;;;;;;;6.60;5.57;;;;;;;22.98;90.96;97350.66;4919671;29;20197;-66
2021/09/16 08:20:49;;;;;;;7.07;5.47;;;;;;;22.98;90.89;97354.06;4933366;29;20203;-67
2021/09/16 08:23:19;;;;;;;6.70;5.57;;;;;;;22.97;90.96;97352.34;4936415;29;20223;-67
2021/09/16 08:25:46;;;;;;;6.83;6.03;;;;;;;22.94;90.91;97343.72;4942450;28;20311;-66
2021/09/16 08:28:13;;;;;;;12.97;5.97;;;;;;;22.95;90.91;97350.59;4936445;28;20218;-66
2021/09/16 08:30:40;;;;;;;7.70;5.73;;;;;;;22.93;91.14;97344.56;4902494;28;20233;-66
2021/09/16 08:33:06;;;;;;;8.50;6.17;;;;;;;22.93;91.60;97339.44;4936871;28;20871;-66
2021/09/16 08:35:33;;;;;;;5.87;5.27;;;;;;;22.87;91.64;97326.50;4919519;28;20319;-67
2021/09/16 08:38:00;;;;;;;6.23;5.47;;;;;;;22.77;91.76;97309.22;4918726;28;20204;-66
2021/09/16 08:40:26;;;;;;;7.37;5.83;;;;;;;22.74;91.60;97302.31;4932095;29;20227;-67
2021/09/16 08:42:53;;;;;;;7.87;6.10;;;;;;;22.82;91.85;97321.28;4935400;29;20291;-67
2021/09/16 08:45:20;;;;;;;7.07;5.83;;;;;;;22.96;91.80;97345.50;4934215;29;20247;-67
2021/09/16 08:47:50;;;;;;;8.57;6.53;;;;;;;23.00;91.80;97351.53;4949874;28;20307;-66
2021/09/16 08:50:18;;;;;;;6.80;5.43;;;;;;;22.99;91.97;97352.38;4935945;28;20207;-66
2021/09/16 08:52:45;;;;;;;6.37;4.93;;;;;;;22.82;91.75;97318.72;4952494;28;20227;-67
2021/09/16 08:55:13;;;;;;;6.47;5.87;;;;;;;22.99;91.94;97349.81;4936734;28;20299;-66
2021/09/16 08:57:40;;;;;;;6.07;5.27;;;;;;;22.48;92.11;97262.47;4964285;23;20262;-67
2021/09/16 09:00:10;;;;;;;6.90;5.53;;;;;;;23.02;91.92;97348.19;4952995;28;20206;-73
2021/09/16 09:02:36;;;;;;;7.13;6.03;;;;;;;23.03;92.38;97349.03;4985651;28;20784;-67
2021/09/16 09:05:04;;;;;;;10.00;5.87;;;;;;;23.04;92.32;97359.31;4955061;28;20208;-67
2021/09/16 09:07:45;;;;;;;8.70;5.27;;;;;;;23.05;92.21;97355.06;4950910;28;20228;-66
2021/09/16 09:10:30;;;;;;;7.07;5.30;;;;;;;22.66;91.99;97291.06;4952066;28;20686;-67
2021/09/16 09:12:57;;;;;;;5.53;4.97;;;;;;;22.03;91.93;97179.56;4960307;28;20290;-67
2021/09/16 09:15:24;;;;;;;6.67;5.50;;;;;;;22.95;91.64;97340.34;4952951;28;20291;-67
2021/09/16 09:18:08;;;;;;;5.97;4.87;;;;;;;23.07;91.77;97354.25;4934007;28;20322;-67
2021/09/16 09:21:07;;;;;;;6.70;5.40;;;;;;;23.06;91.53;97354.22;4954972;28;20279;-66
2021/09/16 09:23:44;;;;;;;7.03;4.50;;;;;;;22.83;91.49;97309.34;4951796;28;20287;-67
2021/09/16 09:26:31;;;;;;;5.43;4.93;;;;;;;23.06;91.29;97347.41;4934063;28;20655;-66
2021/09/16 09:29:07;;;;;;;7.80;4.93;;;;;;;23.06;91.25;97341.41;4948981;29;20797;-67
2021/09/16 09:32:01;;;;;;;9.10;5.80;;;;;;;23.06;91.63;97347.41;4934487;29;20201;-67
2021/09/16 09:34:35;;;;;;;15.50;5.23;;;;;;;22.10;92.00;97183.97;4952342;28;20232;-66
2021/09/16 09:37:12;;;;;;;17.70;5.77;;;;;;;23.05;92.00;97337.13;4948773;28;20347;-65
2021/09/16 09:39:40;;;;;;;33.80;7.03;;;;;;;23.00;91.98;97341.28;4949135;29;20211;-66
2021/09/16 09:42:27;;;;;;;32.93;8.27;;;;;;;23.04;92.46;97341.38;4965010;28;20240;-67
2021/09/16 09:44:54;;;;;;;51.20;8.70;;;;;;;22.89;92.99;97325.69;4970583;28;20299;-67
2021/09/16 09:47:41;;;;;;;48.70;10.03;;;;;;;23.05;93.21;97342.25;4948971;28;21010;-68
2021/09/16 09:50:25;;;;;;;50.67;10.67;;;;;;;22.79;94.30;97304.97;4964480;28;20200;-67
2021/09/16 09:52:52;;;;;;;74.43;11.63;;;;;;;22.99;94.90;97331.88;4935052;28;20199;-67
2021/09/16 09:55:21;;;;;;;84.97;13.13;;;;;;;23.06;94.46;97336.28;4948936;29;20300;-67
2021/09/16 09:57:48;;;;;;;67.87;13.13;;;;;;;22.46;93.98;97241.06;4923155;28;20314;-67
2021/09/16 10:00:17;;;;;;;60.63;12.40;;;;;;;22.81;93.50;97298.19;4918564;29;20211;-67
2021/09/16 10:02:54;;;;;;;77.37;12.17;;;;;;;22.12;93.56;97166.97;4932134;29;20291;-67
2021/09/16 10:05:24;;;;;;;63.93;12.57;;;;;;;23.09;93.48;97333.78;4931716;29;20209;-67
2021/09/16 10:07:51;;;;;;;62.17;12.40;;;;;;;23.09;93.25;97334.66;4941193;29;20263;-66
2021/09/16 10:10:18;;;;;;;51.77;10.87;;;;;;;23.10;93.15;97328.72;4950482;28;20224;-67
2021/09/16 10:12:45;;;;;;;56.10;11.90;;;;;;;23.12;93.04;97323.63;4950697;28;20757;-67
2021/09/16 10:15:17;;;;;;;63.13;12.30;;;;;;;22.79;92.88;97261.41;4933187;29;20303;-67
2021/09/16 10:17:44;;;;;;;51.30;10.70;;;;;;;23.11;92.88;97309.94;4967891;28;20277;-67
2021/09/16 10:20:12;;;;;;;55.60;10.43;;;;;;;23.12;92.83;97309.09;4954481;28;20873;-67
2021/09/16 10:22:39;;;;;;;47.37;10.80;;;;;;;22.98;92.87;97286.59;4950513;29;20315;-66
2021/09/16 10:25:06;;;;;;;67.07;10.63;;;;;;;23.13;92.63;97302.28;4968325;28;20740;-66
2021/09/16 10:27:38;;;;;;;53.63;10.57;;;;;;;23.08;92.78;97293.63;4941449;29;20314;-66
2021/09/16 10:30:24;;;;;;;42.17;10.07;;;;;;;23.14;92.59;97306.56;4939717;29;20204;-67
2021/09/16 10:33:22;;;;;;;39.27;9.90;;;;;;;23.15;92.51;97305.75;4949268;29;20302;-67
2021/09/16 10:35:58;;;;;;;46.43;9.97;;;;;;;23.14;92.37;97312.56;4949469;28;20270;-66
2021/09/16 10:38:29;;;;;;;36.40;9.43;;;;;;;23.14;92.26;97302.31;4943870;28;20594;-67
2021/09/16 10:41:10;;;;;;;33.57;9.67;;;;;;;23.14;92.29;97298.88;4949638;28;20240;-67
2021/09/16 10:43:37;;;;;;;40.60;9.57;;;;;;;23.05;92.11;97297.00;4947177;28;20654;-66
2021/09/16 10:46:37;;;;;;;32.70;9.03;;;;;;;23.13;91.87;97308.28;4943056;29;20310;-67
2021/09/16 10:49:19;;;;;;;40.23;9.43;;;;;;;23.12;91.79;97315.94;4949093;28;20295;-66
2021/09/16 10:51:49;;;;;;;35.77;8.90;;;;;;;23.10;91.55;97303.09;4949175;28;20196;-66
2021/09/16 10:54:29;;;;;;;37.83;9.13;;;;;;;23.11;91.49;97304.81;4916896;29;20205;-66
2021/09/16 10:57:07;;;;;;;29.90;8.77;;;;;;;23.11;91.59;97306.50;4949298;28;20247;-66
2021/09/16 10:59:52;;;;;;;32.33;9.50;;;;;;;23.09;91.34;97300.47;4954004;28;20206;-66
2021/09/16 11:02:22;;;;;;;35.43;9.57;;;;;;;22.59;91.36;97212.34;4951956;28;20227;-66
2021/09/16 11:04:59;;;;;;;29.10;9.17;;;;;;;23.08;91.38;97291.94;4944422;28;20224;-66
2021/09/16 11:07:32;;;;;;;32.50;8.53;;;;;;;23.09;91.55;97295.34;4950728;28;20672;-67
2021/09/16 11:10:21;;;;;;;30.50;8.13;;;;;;;23.09;91.74;97285.09;4965066;28;20204;-66
2021/09/16 11:12:52;;;;;;;34.60;8.30;;;;;;;23.08;91.62;97280.81;4968188;28;20223;-66
2021/09/16 11:15:29;;;;;;;26.23;8.03;;;;;;;23.07;91.64;97290.19;4968233;28;20203;-66
2021/09/16 11:18:02;;;;;;;32.93;8.47;;;;;;;23.08;91.68;97281.69;4962521;28;20220;-66
2021/09/16 11:20:28;;;;;;;29.27;7.67;;;;;;;22.85;91.36;97243.59;4963583;28;20258;-66
2021/09/16 11:22:55;;;;;;;24.30;7.80;;;;;;;22.58;91.71;97202.94;4968702;28;20250;-66
2021/09/16 11:25:21;;;;;;;30.57;7.87;;;;;;;23.09;91.21;97277.41;4968094;28;20298;-66
2021/09/16 11:27:48;;;;;;;32.33;8.27;;;;;;;23.09;91.68;97274.84;4956755;28;20236;-66
2021/09/16 11:30:16;;;;;;;30.80;8.53;;;;;;;23.10;91.58;97274.03;4917519;29;20233;-66
2021/09/16 11:32:43;;;;;;;28.70;8.43;;;;;;;23.10;91.58;97276.59;4937786;28;20295;-66
2021/09/16 11:35:16;;;;;;;25.37;7.67;;;;;;;23.11;91.65;97275.75;4949279;29;20204;-65
2021/09/16 11:37:44;;;;;;;25.67;7.80;;;;;;;23.11;91.62;97279.19;4956357;28;20298;-66
2021/09/16 11:40:12;;;;;;;25.93;7.70;;;;;;;23.12;91.58;97267.22;4967884;28;20286;-66